createdAt,value
2023-03-06T00:01:17.656Z,36.83
2023-03-06T00:03:45.631Z,27.97
2023-03-06T00:06:13.604Z,24.10
2023-03-06T00:08:41.522Z,15.33
2023-03-06T00:11:09.402Z,18.07
2023-03-06T00:13:37.287Z,18.50
2023-03-06T00:16:07.625Z,15.23
2023-03-06T00:18:35.761Z,16.00
2023-03-06T00:21:07.532Z,20.40
2023-03-06T00:23:36.306Z,15.17
2023-03-06T00:26:04.206Z,17.27
2023-03-06T00:28:32.630Z,19.50
2023-03-06T00:31:01.318Z,19.27
2023-03-06T00:33:30.757Z,18.40
2023-03-06T00:35:58.822Z,15.83
2023-03-06T00:38:28.579Z,16.43
2023-03-06T00:40:56.441Z,20.33
2023-03-06T00:43:24.316Z,17.90
2023-03-06T00:45:52.335Z,17.73
2023-03-06T00:48:20.373Z,19.13
2023-03-06T00:50:49.601Z,22.00
2023-03-06T00:53:17.494Z,20.77
2023-03-06T00:55:45.711Z,17.30
2023-03-06T00:58:13.709Z,18.10
2023-03-06T01:00:41.604Z,19.10
2023-03-06T01:03:09.503Z,18.73
2023-03-06T01:05:39.079Z,16.47
2023-03-06T01:08:09.372Z,25.80
2023-03-06T01:10:40.611Z,21.00
2023-03-06T01:13:08.639Z,20.90
2023-03-06T01:15:36.572Z,20.50
2023-03-06T01:18:04.646Z,20.50
2023-03-06T01:20:32.735Z,19.17
2023-03-06T01:23:01.081Z,21.03
2023-03-06T01:25:30.475Z,20.77
2023-03-06T01:27:58.431Z,16.47
2023-03-06T01:30:26.347Z,24.80
2023-03-06T01:32:54.336Z,18.43
2023-03-06T01:35:22.267Z,20.20
2023-03-06T01:37:50.252Z,14.67
2023-03-06T01:40:18.205Z,20.00
2023-03-06T01:42:49.916Z,16.70
2023-03-06T01:45:55.744Z,18.07
2023-03-06T01:48:25.301Z,21.63
2023-03-06T01:50:54.991Z,16.50
2023-03-06T01:53:23.055Z,22.73
2023-03-06T01:55:51.298Z,17.57
2023-03-06T01:58:21.136Z,20.57
2023-03-06T02:00:49.281Z,18.63
2023-03-06T02:03:21.793Z,20.63
2023-03-06T02:05:50.135Z,19.77
2023-03-06T02:08:21.726Z,20.53
2023-03-06T02:10:59.647Z,17.53
2023-03-06T02:13:29.195Z,16.57
2023-03-06T02:15:57.588Z,17.37
2023-03-06T02:18:26.044Z,17.90
2023-03-06T02:20:58.342Z,18.40
2023-03-06T02:23:31.245Z,18.87
2023-03-06T02:26:01.979Z,19.50
2023-03-06T02:28:30.115Z,18.87
2023-03-06T02:30:58.375Z,19.90
2023-03-06T02:33:28.754Z,23.67
2023-03-06T02:36:00.389Z,16.60
2023-03-06T02:38:32.567Z,22.83
2023-03-06T02:41:04.881Z,24.60
2023-03-06T02:43:35.762Z,21.97
2023-03-06T02:46:03.949Z,18.10
2023-03-06T02:48:32.007Z,22.27
2023-03-06T02:51:00.032Z,19.83
2023-03-06T02:53:28.252Z,17.23
2023-03-06T02:55:56.409Z,18.83
2023-03-06T02:58:25.918Z,15.50
2023-03-06T03:00:53.919Z,22.33
2023-03-06T03:03:22.043Z,21.27
2023-03-06T03:05:50.109Z,18.50
2023-03-06T03:08:18.274Z,17.73
2023-03-06T03:10:46.280Z,21.23
2023-03-06T03:13:14.349Z,15.90
2023-03-06T03:15:44.410Z,20.40
2023-03-06T03:18:12.919Z,22.30
2023-03-06T03:20:43.893Z,17.83
2023-03-06T03:23:11.847Z,23.90
2023-03-06T03:25:39.875Z,22.97
2023-03-06T03:28:07.886Z,22.30
2023-03-06T03:30:35.920Z,19.77
2023-03-06T03:33:05.358Z,18.60
2023-03-06T03:35:33.413Z,19.93
2023-03-06T03:38:01.348Z,25.20
2023-03-06T03:40:29.454Z,22.13
2023-03-06T03:42:57.428Z,20.73
2023-03-06T03:45:25.685Z,20.43
2023-03-06T03:47:53.761Z,23.43
2023-03-06T03:50:23.242Z,19.43
2023-03-06T03:52:51.198Z,22.83
2023-03-06T03:55:19.306Z,23.77
2023-03-06T03:57:47.419Z,21.00
2023-03-06T04:00:16.621Z,19.73
2023-03-06T04:02:45.056Z,22.90
2023-03-06T04:05:14.976Z,21.40
2023-03-06T04:07:44.821Z,19.73
2023-03-06T04:10:13.833Z,26.43
2023-03-06T04:12:41.952Z,19.83
2023-03-06T04:15:10.586Z,21.13
2023-03-06T04:17:38.537Z,25.63
2023-03-06T04:20:07.502Z,25.20
2023-03-06T04:22:35.417Z,22.23
2023-03-06T04:25:05.210Z,20.57
2023-03-06T04:27:33.452Z,20.57
2023-03-06T04:30:01.557Z,20.83
2023-03-06T04:32:29.739Z,18.87
2023-03-06T04:34:58.117Z,21.43
2023-03-06T04:37:27.665Z,16.40
2023-03-06T04:39:55.775Z,17.37
2023-03-06T04:42:25.246Z,24.83
2023-03-06T04:44:53.326Z,25.07
2023-03-06T04:47:21.564Z,18.90
2023-03-06T04:49:49.478Z,26.33
2023-03-06T04:52:17.666Z,19.93
2023-03-06T04:54:46.038Z,29.33
2023-03-06T04:57:14.289Z,21.87
2023-03-06T04:59:43.850Z,27.63
2023-03-06T05:02:11.861Z,22.10
2023-03-06T05:04:40.002Z,22.73
2023-03-06T05:07:08.068Z,27.37
2023-03-06T05:09:38.844Z,23.70
2023-03-06T05:12:07.649Z,27.03
2023-03-06T05:14:35.764Z,22.90
2023-03-06T05:17:05.234Z,20.33
2023-03-06T05:19:33.274Z,25.83
2023-03-06T05:22:01.380Z,21.80
2023-03-06T05:24:29.454Z,24.37
2023-03-06T05:26:57.607Z,25.90
2023-03-06T05:29:25.737Z,27.00
2023-03-06T05:31:53.900Z,24.90
2023-03-06T05:34:23.482Z,26.80
2023-03-06T05:36:51.599Z,22.20
2023-03-06T05:39:19.772Z,25.97
2023-03-06T05:41:47.844Z,23.60
2023-03-06T05:44:15.833Z,21.60
2023-03-06T05:46:43.912Z,24.33
2023-03-06T05:49:12.004Z,24.70
2023-03-06T05:51:41.528Z,24.63
2023-03-06T05:54:09.693Z,28.67
2023-03-06T05:56:37.782Z,22.90
2023-03-06T05:59:05.828Z,25.50
2023-03-06T06:01:34.000Z,23.13
2023-03-06T06:04:02.097Z,23.77
2023-03-06T06:06:30.104Z,23.00
2023-03-06T06:08:59.569Z,26.00
2023-03-06T06:11:27.669Z,25.37
2023-03-06T06:13:55.733Z,27.97
2023-03-06T06:16:23.688Z,27.00
2023-03-06T06:18:51.772Z,31.30
2023-03-06T06:21:19.851Z,24.30
2023-03-06T06:23:48.046Z,27.37
2023-03-06T06:26:17.475Z,24.83
2023-03-06T06:28:45.536Z,27.83
2023-03-06T06:33:56.080Z,25.47
2023-03-06T06:36:26.394Z,27.37
2023-03-06T06:39:02.441Z,30.03
2023-03-06T06:42:02.398Z,24.97
2023-03-06T06:44:42.009Z,31.53
2023-03-06T06:47:23.588Z,25.27
2023-03-06T06:49:53.733Z,29.27
2023-03-06T06:52:22.587Z,35.67
2023-03-06T06:54:50.990Z,29.63
2023-03-06T06:57:20.716Z,27.10
2023-03-06T06:59:53.428Z,28.27
2023-03-06T07:02:22.578Z,40.40
2023-03-06T07:05:03.185Z,27.00
2023-03-06T07:07:34.715Z,27.03
2023-03-06T07:10:05.062Z,30.47
2023-03-06T07:12:35.753Z,27.63
2023-03-06T07:15:08.342Z,28.93
2023-03-06T07:17:38.010Z,36.50
2023-03-06T07:20:11.289Z,29.27
2023-03-06T07:22:50.404Z,22.30
2023-03-06T07:25:20.498Z,33.70
2023-03-06T07:27:55.788Z,33.47
2023-03-06T07:30:24.959Z,28.33
2023-03-06T07:32:56.638Z,27.20
2023-03-06T07:35:26.038Z,27.60
2023-03-06T07:37:57.008Z,28.97
2023-03-06T07:40:26.219Z,22.57
2023-03-06T07:43:09.152Z,25.73
2023-03-06T07:45:46.979Z,25.23
2023-03-06T07:48:15.732Z,30.43
2023-03-06T07:50:44.184Z,35.13
2023-03-06T07:53:12.241Z,27.87
2023-03-06T07:55:42.492Z,34.73
2023-03-06T07:58:12.030Z,27.27
2023-03-06T08:00:40.091Z,25.63
2023-03-06T08:03:17.546Z,26.30
2023-03-06T08:05:46.144Z,19.57
2023-03-06T08:08:14.597Z,24.27
2023-03-06T08:10:50.056Z,26.30
2023-03-06T08:13:19.992Z,22.37
2023-03-06T08:15:50.243Z,26.77
2023-03-06T08:18:18.375Z,22.47
2023-03-06T08:20:46.655Z,22.10
2023-03-06T08:23:15.048Z,24.00
2023-03-06T08:25:43.595Z,24.37
2023-03-06T08:28:11.817Z,21.00
2023-03-06T08:30:47.109Z,21.73
2023-03-06T08:33:15.262Z,19.10
2023-03-06T08:35:47.983Z,23.70
2023-03-06T08:38:16.601Z,24.57
2023-03-06T08:40:47.331Z,21.70
2023-03-06T08:43:15.772Z,20.60
2023-03-06T08:45:45.492Z,19.80
2023-03-06T08:48:13.833Z,27.03
2023-03-06T08:50:44.549Z,25.37
2023-03-06T08:53:15.799Z,22.53
2023-03-06T08:55:44.366Z,25.93
2023-03-06T08:58:12.841Z,21.23
2023-03-06T09:00:41.594Z,20.40
2023-03-06T09:03:11.702Z,21.23
2023-03-06T09:05:41.926Z,17.70
2023-03-06T09:08:18.231Z,19.77
2023-03-06T09:10:48.046Z,22.47
2023-03-06T09:13:16.452Z,18.60
2023-03-06T09:15:44.565Z,27.57
2023-03-06T09:18:15.034Z,18.60
2023-03-06T09:20:55.143Z,26.73
2023-03-06T09:23:24.340Z,17.63
2023-03-06T09:25:59.547Z,19.43
2023-03-06T09:28:28.359Z,18.60
2023-03-06T09:30:56.964Z,20.90
2023-03-06T09:33:39.379Z,19.40
2023-03-06T09:36:09.506Z,18.27
2023-03-06T09:38:37.963Z,17.40
2023-03-06T09:41:19.768Z,19.03
2023-03-06T09:43:51.554Z,15.73
2023-03-06T09:46:24.767Z,14.83
2023-03-06T09:49:21.512Z,24.57
2023-03-06T09:52:07.361Z,17.20
2023-03-06T09:54:48.020Z,17.47
2023-03-06T09:57:25.286Z,21.03
2023-03-06T09:59:56.360Z,16.60
2023-03-06T10:02:37.014Z,18.53
2023-03-06T10:05:11.885Z,11.70
2023-03-06T10:07:47.681Z,15.23
2023-03-06T10:10:37.431Z,17.13
2023-03-06T10:13:14.309Z,14.77
2023-03-06T10:15:47.666Z,14.80
2023-03-06T10:18:16.366Z,17.67
2023-03-06T10:20:51.076Z,18.13
2023-03-06T10:23:35.204Z,13.70
2023-03-06T10:26:08.374Z,20.70
2023-03-06T10:28:40.683Z,15.07
2023-03-06T10:31:16.805Z,16.03
2023-03-06T10:33:54.220Z,18.97
2023-03-06T10:36:27.647Z,17.90
2023-03-06T10:38:58.137Z,21.90
2023-03-06T10:41:28.930Z,14.37
2023-03-06T10:44:27.061Z,15.90
2023-03-06T10:46:56.554Z,13.53
2023-03-06T10:49:36.325Z,14.27
2023-03-06T10:52:08.265Z,17.57
2023-03-06T10:54:38.805Z,15.70
2023-03-06T10:57:22.290Z,14.73
2023-03-06T10:59:55.836Z,13.07
2023-03-06T11:02:30.794Z,17.20
2023-03-06T11:05:01.641Z,19.20
2023-03-06T11:07:32.738Z,11.80
2023-03-06T11:10:07.982Z,20.43
2023-03-06T11:12:37.701Z,13.60
2023-03-06T11:15:21.205Z,14.17
2023-03-06T11:17:55.769Z,13.83
2023-03-06T11:20:26.561Z,15.40
2023-03-06T11:23:00.717Z,10.40
2023-03-06T11:25:34.593Z,13.43
2023-03-06T11:28:08.856Z,14.60
2023-03-06T11:30:46.519Z,12.87
2023-03-06T11:33:26.569Z,11.60
2023-03-06T11:35:59.524Z,14.30
2023-03-06T11:38:39.956Z,14.17
2023-03-06T11:41:19.190Z,12.57
2023-03-06T11:43:55.318Z,9.80
2023-03-06T11:46:29.264Z,12.00
2023-03-06T11:49:04.202Z,11.13
2023-03-06T11:51:36.886Z,11.80
2023-03-06T11:54:06.946Z,13.10
2023-03-06T11:56:44.124Z,14.10
2023-03-06T11:59:44.830Z,13.67
2023-03-06T12:02:26.443Z,13.67
2023-03-06T12:05:02.491Z,10.63
2023-03-06T12:07:53.373Z,17.30
2023-03-06T12:10:28.086Z,14.00
2023-03-06T12:13:10.808Z,13.17
2023-03-06T12:15:55.158Z,15.83
2023-03-06T12:18:36.376Z,11.97
2023-03-06T12:21:08.898Z,11.80
2023-03-06T12:23:58.838Z,12.20
2023-03-06T12:26:42.388Z,8.93
2023-03-06T12:29:25.231Z,15.53
2023-03-06T12:32:17.068Z,11.60
2023-03-06T12:35:05.545Z,11.03
2023-03-06T12:37:49.236Z,10.00
2023-03-06T12:40:37.219Z,13.60
2023-03-06T12:43:35.129Z,12.10
2023-03-06T12:46:10.641Z,13.40
2023-03-06T12:48:40.728Z,11.13
2023-03-06T12:51:23.050Z,13.03
2023-03-06T12:53:52.214Z,28.13
2023-03-06T12:56:21.869Z,12.03
2023-03-06T12:58:55.119Z,13.27
2023-03-06T13:02:01.872Z,13.40
2023-03-06T13:04:51.339Z,12.33
2023-03-06T13:07:31.277Z,9.80
2023-03-06T13:10:12.114Z,11.60
2023-03-06T13:12:55.689Z,11.63
2023-03-06T13:15:38.860Z,12.80
2023-03-06T13:18:55.818Z,12.97
2023-03-06T13:22:09.870Z,13.50
2023-03-06T13:24:38.669Z,14.47
2023-03-06T13:27:12.034Z,16.40
2023-03-06T13:30:22.073Z,12.50
2023-03-06T13:32:53.727Z,17.17
2023-03-06T13:35:52.507Z,13.17
2023-03-06T13:38:35.266Z,16.00
2023-03-06T13:41:35.496Z,14.30
2023-03-06T13:44:09.052Z,11.20
2023-03-06T13:46:39.037Z,15.23
2023-03-06T13:49:17.932Z,15.83
2023-03-06T13:52:06.520Z,11.40
2023-03-06T13:54:48.339Z,11.80
2023-03-06T13:57:42.105Z,22.77
2023-03-06T14:00:27.691Z,10.23
2023-03-06T14:03:27.962Z,8.80
2023-03-06T14:05:58.919Z,9.93
2023-03-06T14:08:29.679Z,19.90
2023-03-06T14:11:03.770Z,20.53
2023-03-06T14:13:46.699Z,14.50
2023-03-06T14:16:21.599Z,13.63
2023-03-06T14:18:51.694Z,11.30
2023-03-06T14:21:31.013Z,11.90
2023-03-06T14:24:01.002Z,12.17
2023-03-06T14:26:33.389Z,10.07
2023-03-06T14:29:03.417Z,11.03
2023-03-06T14:31:34.243Z,10.10
2023-03-06T14:34:05.009Z,10.37
2023-03-06T14:36:41.330Z,12.30
2023-03-06T14:39:14.746Z,13.93
2023-03-06T14:41:43.054Z,11.40
2023-03-06T14:44:18.006Z,14.03
2023-03-06T14:46:46.835Z,11.70
2023-03-06T14:49:15.612Z,11.60
2023-03-06T14:51:47.744Z,13.80
2023-03-06T14:54:19.593Z,20.30
2023-03-06T14:56:50.129Z,14.37
2023-03-06T14:59:25.136Z,15.20
2023-03-06T15:01:58.081Z,13.07
2023-03-06T15:04:30.342Z,18.40
2023-03-06T15:07:00.391Z,10.47
2023-03-06T15:09:31.402Z,12.77
2023-03-06T15:12:01.394Z,15.37
2023-03-06T15:14:35.795Z,13.13
2023-03-06T15:17:29.049Z,12.33
2023-03-06T15:19:58.473Z,11.57
2023-03-06T15:22:31.568Z,13.10
2023-03-06T15:25:26.661Z,16.83
2023-03-06T15:27:56.881Z,11.10
2023-03-06T15:30:29.571Z,17.83
2023-03-06T15:33:23.163Z,14.20
2023-03-06T15:35:57.141Z,10.37
2023-03-06T15:38:33.127Z,9.70
2023-03-06T15:41:02.373Z,10.63
2023-03-06T15:43:35.305Z,11.50
2023-03-06T15:46:05.864Z,13.80
2023-03-06T15:48:35.405Z,9.80
2023-03-06T15:51:07.118Z,9.57
2023-03-06T15:53:36.679Z,11.70
2023-03-06T15:56:04.743Z,10.13
2023-03-06T15:58:35.191Z,10.93
2023-03-06T16:01:03.855Z,15.13
2023-03-06T16:03:32.276Z,12.83
2023-03-06T16:06:00.310Z,15.93
2023-03-06T16:08:28.846Z,15.73
2023-03-06T16:10:59.003Z,12.00
2023-03-06T16:13:29.091Z,14.50
2023-03-06T16:15:57.670Z,14.03
2023-03-06T16:18:25.751Z,14.80
2023-03-06T16:20:53.673Z,14.33
2023-03-06T16:23:21.737Z,15.63
2023-03-06T16:25:50.545Z,15.43
2023-03-06T16:28:19.865Z,16.57
2023-03-06T16:30:47.899Z,16.40
2023-03-06T16:33:16.223Z,17.83
2023-03-06T16:35:46.629Z,20.37
2023-03-06T16:38:15.937Z,16.80
2023-03-06T16:40:44.258Z,23.07
2023-03-06T16:43:13.456Z,18.30
2023-03-06T16:45:44.444Z,21.67
2023-03-06T16:48:17.057Z,17.30
2023-03-06T16:50:45.604Z,20.73
2023-03-06T16:53:13.913Z,22.93
2023-03-06T16:55:41.900Z,19.03
2023-03-06T16:58:10.002Z,18.33
2023-03-06T17:00:38.450Z,19.00
2023-03-06T17:03:07.937Z,20.00
2023-03-06T17:05:39.404Z,19.30
2023-03-06T17:08:07.574Z,16.80
2023-03-06T17:10:35.771Z,19.67
2023-03-06T17:13:05.106Z,15.90
2023-03-06T17:15:33.056Z,17.27
2023-03-06T17:18:01.164Z,19.20
2023-03-06T17:20:30.440Z,21.03
2023-03-06T17:22:58.414Z,17.17
2023-03-06T17:25:26.372Z,16.10
2023-03-06T17:27:54.346Z,19.87
2023-03-06T17:30:22.320Z,19.33
2023-03-06T17:32:50.256Z,25.80
2023-03-06T17:35:18.293Z,20.03
2023-03-06T17:37:47.867Z,17.10
2023-03-06T17:40:16.609Z,19.73
2023-03-06T17:42:44.644Z,22.63
2023-03-06T17:45:13.818Z,21.40
2023-03-06T17:47:42.043Z,17.17
2023-03-06T17:50:11.717Z,16.37
2023-03-06T17:52:39.960Z,17.93
2023-03-06T17:55:10.535Z,21.50
2023-03-06T17:57:38.611Z,21.10
2023-03-06T18:00:08.124Z,18.20
2023-03-06T18:02:36.437Z,19.73
2023-03-06T18:05:04.957Z,19.60
2023-03-06T18:07:32.951Z,17.70
2023-03-06T18:10:00.908Z,19.73
2023-03-06T18:12:30.169Z,24.23
2023-03-06T18:14:58.225Z,18.03
2023-03-06T18:17:26.329Z,17.73
2023-03-06T18:19:56.827Z,14.10
2023-03-06T18:22:24.952Z,19.97
2023-03-06T18:24:53.020Z,18.03
2023-03-06T18:27:21.879Z,17.83
2023-03-06T18:29:52.251Z,19.83
2023-03-06T18:32:20.395Z,19.47
2023-03-06T18:34:50.571Z,15.43
2023-03-06T18:37:18.922Z,14.53
2023-03-06T18:39:46.904Z,18.67
2023-03-06T18:42:15.034Z,18.90
2023-03-06T18:44:44.082Z,19.07
2023-03-06T18:47:13.482Z,18.63
2023-03-06T18:49:44.011Z,20.23
2023-03-06T18:52:12.874Z,21.37
2023-03-06T18:54:40.934Z,20.40
2023-03-06T18:57:11.397Z,18.07
2023-03-06T18:59:39.547Z,21.53
2023-03-06T19:02:07.888Z,18.57
2023-03-06T19:04:38.095Z,18.40
2023-03-06T19:07:06.379Z,16.10
2023-03-06T19:09:34.736Z,15.13
2023-03-06T19:12:03.965Z,16.30
2023-03-06T19:14:32.039Z,18.73
2023-03-06T19:17:00.030Z,20.93
2023-03-06T19:19:29.345Z,20.23
2023-03-06T19:22:02.097Z,20.07
2023-03-06T19:24:31.076Z,15.97
2023-03-06T19:26:59.387Z,21.23
2023-03-06T19:29:28.485Z,18.97
2023-03-06T19:31:57.293Z,18.80
2023-03-06T19:34:25.528Z,17.10
2023-03-06T19:36:53.550Z,20.27
2023-03-06T19:39:24.320Z,18.13
2023-03-06T19:42:04.852Z,17.63
2023-03-06T19:44:32.865Z,18.40
2023-03-06T19:47:01.105Z,21.97
2023-03-06T19:49:31.750Z,29.10
2023-03-06T19:51:59.804Z,19.53
2023-03-06T19:54:31.441Z,18.00
2023-03-06T19:57:00.406Z,27.07
2023-03-06T19:59:28.399Z,25.53
2023-03-06T20:01:56.415Z,18.23
2023-03-06T20:04:24.636Z,21.77
2023-03-06T20:06:53.328Z,26.60
2023-03-06T20:09:22.021Z,21.17
2023-03-06T20:11:51.404Z,20.97
2023-03-06T20:14:20.063Z,23.33
2023-03-06T20:16:48.242Z,21.27
2023-03-06T20:19:17.431Z,21.50
2023-03-06T20:21:51.695Z,21.50
2023-03-06T20:24:19.871Z,22.03
2023-03-06T20:26:49.058Z,19.97
2023-03-06T20:29:21.274Z,17.70
2023-03-06T20:31:49.238Z,21.90
2023-03-06T20:34:17.274Z,26.23
2023-03-06T20:36:45.438Z,21.20
2023-03-06T20:39:15.770Z,22.33
2023-03-06T20:41:44.941Z,17.23
2023-03-06T20:44:15.746Z,19.93
2023-03-06T20:46:45.944Z,18.87
2023-03-06T20:49:14.589Z,23.27
2023-03-06T20:51:42.948Z,19.20
2023-03-06T20:54:12.833Z,17.70
2023-03-06T20:56:42.375Z,19.50
2023-03-06T20:59:12.761Z,18.73
2023-03-06T21:01:42.276Z,19.03
2023-03-06T21:04:13.859Z,20.53
2023-03-06T21:06:46.350Z,18.17
2023-03-06T21:09:16.667Z,23.23
2023-03-06T21:11:45.248Z,19.53
2023-03-06T21:14:14.347Z,20.53
2023-03-06T21:16:42.941Z,22.87
2023-03-06T21:19:12.424Z,19.70
2023-03-06T21:21:40.492Z,22.13
2023-03-06T21:24:09.069Z,20.33
2023-03-06T21:26:37.183Z,20.07
2023-03-06T21:29:06.024Z,19.13
2023-03-06T21:31:34.536Z,20.53
2023-03-06T21:34:04.987Z,20.50
2023-03-06T21:36:35.363Z,17.70
2023-03-06T21:39:06.209Z,18.17
2023-03-06T21:41:34.834Z,18.40
2023-03-06T21:44:04.961Z,16.23
2023-03-06T21:46:33.579Z,17.40
2023-03-06T21:49:03.296Z,17.43
2023-03-06T21:51:31.396Z,18.90
2023-03-06T21:54:02.091Z,18.20
2023-03-06T21:56:30.186Z,21.80
2023-03-06T21:58:58.351Z,18.73
2023-03-06T22:01:28.387Z,18.90
2023-03-06T22:03:57.041Z,17.40
2023-03-06T22:06:27.166Z,19.27
2023-03-06T22:08:57.132Z,22.03
2023-03-06T22:11:28.225Z,17.80
2023-03-06T22:13:56.233Z,16.47
2023-03-06T22:16:24.509Z,17.50
2023-03-06T22:18:53.106Z,18.10
2023-03-06T22:21:22.951Z,19.63
2023-03-06T22:23:51.160Z,18.70
2023-03-06T22:26:19.766Z,19.90
2023-03-06T22:28:49.403Z,23.60
2023-03-06T22:31:20.400Z,19.30
2023-03-06T22:33:51.380Z,19.80
2023-03-06T22:36:20.926Z,19.70
2023-03-06T22:38:49.763Z,19.27
2023-03-06T22:41:21.810Z,21.40
2023-03-06T22:43:51.241Z,17.80
2023-03-06T22:46:19.822Z,18.00
2023-03-06T22:48:47.879Z,16.70
2023-03-06T22:51:17.941Z,17.43
2023-03-06T22:53:46.170Z,17.40
2023-03-06T22:56:17.064Z,17.40
2023-03-06T22:58:45.643Z,18.30
2023-03-06T23:01:17.359Z,18.30
2023-03-06T23:03:46.964Z,17.50
2023-03-06T23:06:16.750Z,18.07
2023-03-06T23:08:45.763Z,21.33
2023-03-06T23:11:16.446Z,19.20
2023-03-06T23:13:44.806Z,22.30
2023-03-06T23:16:14.718Z,17.50
2023-03-06T23:18:43.015Z,18.60
2023-03-06T23:21:13.193Z,17.27
2023-03-06T23:23:41.821Z,20.77
2023-03-06T23:26:11.946Z,16.47
2023-03-06T23:28:40.398Z,19.70
2023-03-06T23:31:09.477Z,18.07
2023-03-06T23:33:39.782Z,18.43
2023-03-06T23:36:10.155Z,17.93
2023-03-06T23:38:38.699Z,18.90
2023-03-06T23:41:08.566Z,20.87
2023-03-06T23:43:36.881Z,21.23
2023-03-06T23:46:06.138Z,19.50
2023-03-06T23:48:35.489Z,18.50
2023-03-06T23:51:08.310Z,17.10
2023-03-06T23:53:36.598Z,17.87
2023-03-06T23:56:06.528Z,21.73
2023-03-06T23:58:34.814Z,20.23
